Time;durP1;ratioP1;P1;durP2;ratioP2;P2;SDS_P1;SDS_P2;PMS_P1;PMS_P2;Temp;Humidity;BMP_temperature;BMP_pressure;BME280_temperature;BME280_humidity;BME280_pressure;Samples;Min_cycle;Max_cycle;Signal;HPM_P1;HPM_P2
2022/10/14 00:01:04;;;;;;;;;;;;;;;;;;5074941;28;44648;-77
2022/10/14 00:03:31;;;;;;;;;;;;;;;;;;5074947;28;45164;-76
2022/10/14 00:05:58;;;;;;;;;;;;;;;;;;5076584;28;44940;-76
2022/10/14 00:08:25;;;;;;;;;;;;;;;;;;5074991;28;43541;-77
2022/10/14 00:10:52;;;;;;;;;;;;;;;;;;5076511;28;45730;-77
2022/10/14 00:13:19;;;;;;;;;;;;;;;;;;5072214;28;44983;-77
2022/10/14 00:15:46;;;;;;;;;;;;;;;;;;5071758;28;43696;-77
2022/10/14 00:18:13;;;;;;;;;;;;;;;;;;5073015;28;44642;-77
2022/10/14 00:20:40;;;;;;;;;;;;;;;;;;5072942;28;44675;-77
2022/10/14 00:23:07;;;;;;;;;;;;;;;;;;5076941;28;42731;-77
2022/10/14 00:25:37;;;;;;;;;;;;;;;;;;5074850;28;40799;-77
2022/10/14 00:28:05;;;;;;;;;;;;;;;;;;5075093;28;45100;-77
2022/10/14 00:30:32;;;;;;;;;;;;;;;;;;5070331;28;44773;-77
2022/10/14 00:32:59;;;;;;;;;;;;;;;;;;5069536;28;45089;-77
2022/10/14 00:35:26;;;;;;;;;;;;;;;;;;5069941;28;43366;-77
2022/10/14 00:37:53;;;;;;;;;;;;;;;;;;5073988;28;43199;-77
2022/10/14 00:40:20;;;;;;;;;;;;;;;;;;5072373;28;44356;-77
2022/10/14 00:42:48;;;;;;;;;;;;;;;;;;5070772;28;44108;-77
2022/10/14 00:45:15;;;;;;;;;;;;;;;;;;5072349;28;42331;-78
2022/10/14 00:47:42;;;;;;;;;;;;;;;;;;5069829;28;44857;-77
2022/10/14 00:50:08;;;;;;;;;;;;;;;;;;5080516;28;44846;-77
2022/10/14 00:52:36;;;;;;;;;;;;;;;;;;5073331;28;44380;-78
2022/10/14 00:55:03;;;;;;;;;;;;;;;;;;5073597;28;43548;-77
2022/10/14 00:57:30;;;;;;;;;;;;;;;;;;5070966;28;44832;-77
2022/10/14 00:59:57;;;;;;;;;;;;;;;;;;5072522;28;44363;-77
2022/10/14 01:02:24;;;;;;;;;;;;;;;;;;5075220;28;43090;-77
2022/10/14 01:04:51;;;;;;;;;;;;;;;;;;5077040;28;43695;-77
2022/10/14 01:07:18;;;;;;;;;;;;;;;;;;5075255;28;45897;-77
2022/10/14 01:09:45;;;;;;;;;;;;;;;;;;5074016;28;44331;-77
2022/10/14 01:12:12;;;;;;;;;;;;;;;;;;5080496;28;44051;-77
2022/10/14 01:14:58;;;;;;;;;;;;;;;;;;5075593;28;42840;-77
2022/10/14 01:17:25;;;;;;;;;;;;;;;;;;5076896;28;43694;-77
2022/10/14 01:19:52;;;;;;;;;;;;;;;;;;5075915;28;45099;-77
2022/10/14 01:22:19;;;;;;;;;;;;;;;;;;5080087;28;43651;-77
2022/10/14 01:24:48;;;;;;;;;;;;;;;;;;5073888;28;40786;-77
2022/10/14 01:27:15;;;;;;;;;;;;;;;;;;5077320;28;44117;-77
2022/10/14 01:29:42;;;;;;;;;;;;;;;;;;5076078;28;44503;-77
2022/10/14 01:32:09;;;;;;;;;;;;;;;;;;5072511;28;45197;-78
2022/10/14 01:34:36;;;;;;;;;;;;;;;;;;5073008;28;44748;-78
2022/10/14 01:37:03;;;;;;;;;;;;;;;;;;5081232;28;44349;-77
2022/10/14 01:39:30;;;;;;;;;;;;;;;;;;5072782;28;45953;-77
2022/10/14 01:41:57;;;;;;;;;;;;;;;;;;5071585;28;44286;-77
2022/10/14 01:44:24;;;;;;;;;;;;;;;;;;5077421;28;43633;-77
2022/10/14 01:46:51;;;;;;;;;;;;;;;;;;5074389;28;45885;-77
2022/10/14 01:49:18;;;;;;;;;;;;;;;;;;5069086;28;45310;-78
2022/10/14 01:51:45;;;;;;;;;;;;;;;;;;5070803;28;45624;-77
2022/10/14 01:54:12;;;;;;;;;;;;;;;;;;5071930;28;43306;-77
2022/10/14 01:56:39;;;;;;;;;;;;;;;;;;5070401;28;44745;-77
2022/10/14 01:59:06;;;;;;;;;;;;;;;;;;5079409;28;44760;-77
2022/10/14 02:01:35;;;;;;;;;;;;;;;;;;5074915;28;44111;-77
2022/10/14 02:04:02;;;;;;;;;;;;;;;;;;5073844;28;43664;-77
2022/10/14 02:06:29;;;;;;;;;;;;;;;;;;5074191;28;44866;-77
2022/10/14 02:08:56;;;;;;;;;;;;;;;;;;5069699;28;44008;-76
2022/10/14 02:11:23;;;;;;;;;;;;;;;;;;5079264;28;44112;-77
2022/10/14 02:13:51;;;;;;;;;;;;;;;;;;5075563;28;43711;-77
2022/10/14 02:16:18;;;;;;;;;;;;;;;;;;5078845;28;44480;-77
2022/10/14 02:18:45;;;;;;;;;;;;;;;;;;5080729;28;44914;-76
2022/10/14 02:21:16;;;;;;;;;;;;;;;;;;5086006;28;43380;-75
2022/10/14 02:23:42;;;;;;;;;;;;;;;;;;5077331;28;43714;-78
2022/10/14 02:26:09;;;;;;;;;;;;;;;;;;5069730;28;43412;-78
2022/10/14 02:28:36;;;;;;;;;;;;;;;;;;5079326;28;44843;-75
2022/10/14 02:31:04;;;;;;;;;;;;;;;;;;5077028;28;43734;-78
2022/10/14 02:33:32;;;;;;;;;;;;;;;;;;5069153;28;43381;-77
2022/10/14 02:35:59;;;;;;;;;;;;;;;;;;5075407;28;44833;-77
2022/10/14 02:38:26;;;;;;;;;;;;;;;;;;5076991;28;46074;-78
2022/10/14 02:40:53;;;;;;;;;;;;;;;;;;5073326;28;46340;-77
2022/10/14 02:43:20;;;;;;;;;;;;;;;;;;5071696;28;44721;-77
2022/10/14 02:45:47;;;;;;;;;;;;;;;;;;5069180;28;44762;-77
2022/10/14 02:48:14;;;;;;;;;;;;;;;;;;5076449;28;44676;-77
2022/10/14 02:50:41;;;;;;;;;;;;;;;;;;5075439;28;44799;-74
2022/10/14 02:53:08;;;;;;;;;;;;;;;;;;5074102;28;44463;-77
2022/10/14 02:55:35;;;;;;;;;;;;;;;;;;5076579;28;45791;-77
2022/10/14 02:58:03;;;;;;;;;;;;;;;;;;5073978;28;44781;-77
2022/10/14 03:00:30;;;;;;;;;;;;;;;;;;5073556;28;42807;-77
2022/10/14 03:02:57;;;;;;;;;;;;;;;;;;5079623;28;43552;-77
2022/10/14 03:05:24;;;;;;;;;;;;;;;;;;5074633;28;44882;-77
2022/10/14 03:07:51;;;;;;;;;;;;;;;;;;5075744;28;44796;-77
2022/10/14 03:10:18;;;;;;;;;;;;;;;;;;5080738;28;43888;-77
2022/10/14 03:12:45;;;;;;;;;;;;;;;;;;5081419;28;42177;-77
2022/10/14 03:15:12;;;;;;;;;;;;;;;;;;5078426;28;45404;-77
2022/10/14 03:17:39;;;;;;;;;;;;;;;;;;5087342;28;42719;-77
2022/10/14 03:20:05;;;;;;;;;;;;;;;;;;5072963;28;44297;-77
2022/10/14 03:22:32;;;;;;;;;;;;;;;;;;5079004;28;43657;-77
2022/10/14 03:24:59;;;;;;;;;;;;;;;;;;5078831;28;44821;-77
2022/10/14 03:27:27;;;;;;;;;;;;;;;;;;5077921;28;45775;-77
2022/10/14 03:29:54;;;;;;;;;;;;;;;;;;5080914;28;45678;-77
2022/10/14 03:32:21;;;;;;;;;;;;;;;;;;5073742;28;41671;-78
2022/10/14 03:34:48;;;;;;;;;;;;;;;;;;5077796;28;44875;-77
2022/10/14 03:37:15;;;;;;;;;;;;;;;;;;5084672;28;44049;-77
2022/10/14 03:39:43;;;;;;;;;;;;;;;;;;5073358;28;43896;-77
2022/10/14 03:42:11;;;;;;;;;;;;;;;;;;5074876;28;44779;-78
2022/10/14 03:44:38;;;;;;;;;;;;;;;;;;5077263;28;44402;-77
2022/10/14 03:47:05;;;;;;;;;;;;;;;;;;5079728;28;44787;-77
2022/10/14 03:49:32;;;;;;;;;;;;;;;;;;5076884;28;44424;-77
2022/10/14 03:51:59;;;;;;;;;;;;;;;;;;5076397;28;43688;-78
2022/10/14 03:54:26;;;;;;;;;;;;;;;;;;5076095;28;44566;-77
2022/10/14 03:56:53;;;;;;;;;;;;;;;;;;5086650;28;46262;-77
2022/10/14 03:59:20;;;;;;;;;;;;;;;;;;5071721;28;44026;-77
2022/10/14 04:01:47;;;;;;;;;;;;;;;;;;5081431;28;43576;-77
2022/10/14 04:04:14;;;;;;;;;;;;;;;;;;5077471;28;42895;-77
2022/10/14 04:06:41;;;;;;;;;;;;;;;;;;5072456;28;44780;-77
2022/10/14 04:09:08;;;;;;;;;;;;;;;;;;5074608;28;44115;-77
2022/10/14 04:11:35;;;;;;;;;;;;;;;;;;5081466;28;44026;-77
2022/10/14 04:14:02;;;;;;;;;;;;;;;;;;5080001;28;46033;-77
2022/10/14 04:16:29;;;;;;;;;;;;;;;;;;5073106;28;45642;-78
2022/10/14 04:18:56;;;;;;;;;;;;;;;;;;5075958;28;43071;-77
2022/10/14 04:21:24;;;;;;;;;;;;;;;;;;5075361;28;43618;-78
2022/10/14 04:23:51;;;;;;;;;;;;;;;;;;5071612;28;45807;-77
2022/10/14 04:26:18;;;;;;;;;;;;;;;;;;5072779;28;44482;-78
2022/10/14 04:28:45;;;;;;;;;;;;;;;;;;5071362;28;44086;-77
2022/10/14 04:31:12;;;;;;;;;;;;;;;;;;5077513;28;43322;-77
2022/10/14 04:33:39;;;;;;;;;;;;;;;;;;5083262;28;44567;-77
2022/10/14 04:36:06;;;;;;;;;;;;;;;;;;5074983;28;44163;-77
2022/10/14 04:38:34;;;;;;;;;;;;;;;;;;5074818;28;42277;-77
2022/10/14 04:41:00;;;;;;;;;;;;;;;;;;5077790;28;44048;-77
2022/10/14 04:43:27;;;;;;;;;;;;;;;;;;5079503;28;45821;-77
2022/10/14 04:45:54;;;;;;;;;;;;;;;;;;5070990;28;45177;-77
2022/10/14 04:48:21;;;;;;;;;;;;;;;;;;5080486;28;45056;-77
2022/10/14 04:50:48;;;;;;;;;;;;;;;;;;5074718;28;44839;-77
2022/10/14 04:53:15;;;;;;;;;;;;;;;;;;5072538;28;44841;-77
2022/10/14 04:55:48;;;;;;;;;;;;;;;;;;5081931;28;44643;-77
2022/10/14 04:58:16;;;;;;;;;;;;;;;;;;5072709;28;45624;-77
2022/10/14 05:00:42;;;;;;;;;;;;;;;;;;5074439;28;43510;-78
2022/10/14 05:03:09;;;;;;;;;;;;;;;;;;5071818;28;44763;-78
2022/10/14 05:05:37;;;;;;;;;;;;;;;;;;5076439;28;45867;-78
2022/10/14 05:08:04;;;;;;;;;;;;;;;;;;5086600;28;45053;-78
2022/10/14 05:10:31;;;;;;;;;;;;;;;;;;5076762;28;43665;-77
2022/10/14 05:12:58;;;;;;;;;;;;;;;;;;5071326;28;45010;-77
2022/10/14 05:15:25;;;;;;;;;;;;;;;;;;5072656;28;45848;-77
2022/10/14 05:17:52;;;;;;;;;;;;;;;;;;5077238;28;44072;-78
2022/10/14 05:20:19;;;;;;;;;;;;;;;;;;5075219;28;43787;-78
2022/10/14 05:22:46;;;;;;;;;;;;;;;;;;5076522;28;44142;-78
2022/10/14 05:25:13;;;;;;;;;;;;;;;;;;5075078;28;44723;-77
2022/10/14 05:27:40;;;;;;;;;;;;;;;;;;5073940;28;43614;-77
2022/10/14 05:30:08;;;;;;;;;;;;;;;;;;5073361;28;43587;-78
2022/10/14 05:32:35;;;;;;;;;;;;;;;;;;5075717;28;43726;-78
2022/10/14 05:35:02;;;;;;;;;;;;;;;;;;5077562;28;44685;-78
2022/10/14 05:37:29;;;;;;;;;;;;;;;;;;5076237;28;44033;-78
2022/10/14 05:39:57;;;;;;;;;;;;;;;;;;5085179;28;44631;-78
2022/10/14 05:42:24;;;;;;;;;;;;;;;;;;5071460;28;44674;-78
2022/10/14 05:44:51;;;;;;;;;;;;;;;;;;5076454;28;44813;-78
2022/10/14 05:47:18;;;;;;;;;;;;;;;;;;5075639;28;45728;-78
2022/10/14 05:49:45;;;;;;;;;;;;;;;;;;5072850;28;43491;-78
2022/10/14 05:52:12;;;;;;;;;;;;;;;;;;5074076;28;45833;-78
2022/10/14 05:54:39;;;;;;;;;;;;;;;;;;5076949;28;46751;-78
2022/10/14 05:57:06;;;;;;;;;;;;;;;;;;5079508;28;46148;-78
2022/10/14 05:59:35;;;;;;;;;;;;;;;;;;5071116;28;33563;-78
2022/10/14 06:02:02;;;;;;;;;;;;;;;;;;5082383;28;45309;-78
2022/10/14 06:04:29;;;;;;;;;;;;;;;;;;5071446;28;45826;-78
2022/10/14 06:06:56;;;;;;;;;;;;;;;;;;5071623;28;43581;-78
2022/10/14 06:09:23;;;;;;;;;;;;;;;;;;5075833;28;43692;-78
2022/10/14 06:11:50;;;;;;;;;;;;;;;;;;5077860;28;44835;-78
2022/10/14 06:14:17;;;;;;;;;;;;;;;;;;5071951;28;44944;-78
2022/10/14 06:16:44;;;;;;;;;;;;;;;;;;5080281;28;44135;-77
2022/10/14 06:19:11;;;;;;;;;;;;;;;;;;5073913;28;44740;-78
2022/10/14 06:21:38;;;;;;;;;;;;;;;;;;5073037;28;44473;-77
2022/10/14 06:24:05;;;;;;;;;;;;;;;;;;5081641;28;45629;-78
2022/10/14 06:26:32;;;;;;;;;;;;;;;;;;5071503;28;44960;-78
2022/10/14 06:28:59;;;;;;;;;;;;;;;;;;5070412;28;44707;-77
2022/10/14 06:31:26;;;;;;;;;;;;;;;;;;5079589;28;46160;-78
2022/10/14 06:33:58;;;;;;;;;;;;;;;;;;5073676;28;44645;-78
2022/10/14 06:36:25;;;;;;;;;;;;;;;;;;5068860;28;44120;-77
2022/10/14 06:38:52;;;;;;;;;;;;;;;;;;5079385;28;43895;-78
2022/10/14 06:41:19;;;;;;;;;;;;;;;;;;5080885;28;44614;-78
2022/10/14 06:43:46;;;;;;;;;;;;;;;;;;5082006;28;45079;-78
2022/10/14 06:46:13;;;;;;;;;;;;;;;;;;5068111;28;45064;-77
2022/10/14 06:48:40;;;;;;;;;;;;;;;;;;5076378;28;42685;-78
2022/10/14 06:51:07;;;;;;;;;;;;;;;;;;5071161;28;44895;-77
2022/10/14 06:53:34;;;;;;;;;;;;;;;;;;5070486;28;43506;-77
2022/10/14 06:56:01;;;;;;;;;;;;;;;;;;5076653;28;44294;-78
2022/10/14 06:58:29;;;;;;;;;;;;;;;;;;5073952;28;43411;-77
2022/10/14 07:00:56;;;;;;;;;;;;;;;;;;5072612;28;44852;-77
2022/10/14 07:03:28;;;;;;;;;;;;;;;;;;5071121;28;19940;-77
2022/10/14 07:05:55;;;;;;;;;;;;;;;;;;5068740;28;44415;-78
2022/10/14 07:08:22;;;;;;;;;;;;;;;;;;5071094;28;42168;-78
2022/10/14 07:10:49;;;;;;;;;;;;;;;;;;5073738;28;45896;-77
2022/10/14 07:13:16;;;;;;;;;;;;;;;;;;5077397;28;45800;-77
2022/10/14 07:15:43;;;;;;;;;;;;;;;;;;5068994;28;44978;-77
2022/10/14 07:18:10;;;;;;;;;;;;;;;;;;5071595;28;42391;-77
2022/10/14 07:20:37;;;;;;;;;;;;;;;;;;5068642;28;45806;-76
2022/10/14 07:23:04;;;;;;;;;;;;;;;;;;5078915;28;44763;-76
2022/10/14 07:25:31;;;;;;;;;;;;;;;;;;5069277;28;45190;-76
2022/10/14 07:27:59;;;;;;;;;;;;;;;;;;5071712;28;42523;-77
2022/10/14 07:30:26;;;;;;;;;;;;;;;;;;5069610;28;44834;-77
2022/10/14 07:32:53;;;;;;;;;;;;;;;;;;5068883;28;45958;-77
2022/10/14 07:35:20;;;;;;;;;;;;;;;;;;5067557;28;44792;-77
2022/10/14 07:37:49;;;;;;;;;;;;;;;;;;5068886;28;45149;-77
2022/10/14 07:40:16;;;;;;;;;;;;;;;;;;5079123;28;43842;-77
2022/10/14 07:42:44;;;;;;;;;;;;;;;;;;5071896;28;44433;-77
2022/10/14 07:45:17;;;;;;;;;;;;;;;;;;5072658;28;45181;-77
2022/10/14 07:47:44;;;;;;;;;;;;;;;;;;5073423;28;43390;-77
2022/10/14 07:50:11;;;;;;;;;;;;;;;;;;5078329;28;45794;-77
2022/10/14 07:52:38;;;;;;;;;;;;;;;;;;5075695;28;44396;-78
2022/10/14 07:55:05;;;;;;;;;;;;;;;;;;5079504;28;42664;-77
2022/10/14 07:57:32;;;;;;;;;;;;;;;;;;5071976;28;43408;-78
2022/10/14 07:59:59;;;;;;;;;;;;;;;;;;5072961;28;44893;-77
2022/10/14 08:02:26;;;;;;;;;;;;;;;;;;5073168;28;44966;-77
2022/10/14 08:04:54;;;;;;;;;;;;;;;;;;5072444;28;44129;-77
2022/10/14 08:07:30;;;;;;;;;;;;;;;;;;5075979;28;43536;-78
2022/10/14 08:09:57;;;;;;;;;;;;;;;;;;5075523;28;43846;-78
2022/10/14 08:12:24;;;;;;;;;;;;;;;;;;5074257;28;45823;-77
2022/10/14 08:14:52;;;;;;;;;;;;;;;;;;5071996;28;45259;-77
2022/10/14 08:17:19;;;;;;;;;;;;;;;;;;5069968;28;43955;-78
2022/10/14 08:19:47;;;;;;;;;;;;;;;;;;5075502;28;44866;-77
2022/10/14 08:22:14;;;;;;;;;;;;;;;;;;5070174;28;44467;-77
2022/10/14 08:24:41;;;;;;;;;;;;;;;;;;5076194;28;45061;-78
2022/10/14 08:27:08;;;;;;;;;;;;;;;;;;5080918;28;45052;-78
2022/10/14 08:29:35;;;;;;;;;;;;;;;;;;5074694;28;45935;-78
2022/10/14 08:32:02;;;;;;;;;;;;;;;;;;5070762;28;44653;-78
2022/10/14 08:34:29;;;;;;;;;;;;;;;;;;5080656;28;44030;-79
2022/10/14 08:36:56;;;;;;;;;;;;;;;;;;5079148;28;43007;-79
2022/10/14 08:39:23;;;;;;;;;;;;;;;;;;5075478;28;44859;-78
2022/10/14 08:41:50;;;;;;;;;;;;;;;;;;5073173;28;44670;-78
2022/10/14 08:44:17;;;;;;;;;;;;;;;;;;5074387;28;43986;-77
2022/10/14 08:46:44;;;;;;;;;;;;;;;;;;5073045;28;42195;-78
2022/10/14 08:49:16;;;;;;;;;;;;;;;;;;5073323;28;42852;-78
2022/10/14 08:51:43;;;;;;;;;;;;;;;;;;5073622;28;42850;-78
2022/10/14 08:54:11;;;;;;;;;;;;;;;;;;5070590;28;45281;-77
2022/10/14 08:56:38;;;;;;;;;;;;;;;;;;5073583;28;43726;-78
2022/10/14 08:59:05;;;;;;;;;;;;;;;;;;5078012;28;44886;-78
2022/10/14 09:01:32;;;;;;;;;;;;;;;;;;5073811;28;44772;-79
2022/10/14 09:04:00;;;;;;;;;;;;;;;;;;5078281;28;44261;-78
2022/10/14 09:06:27;;;;;;;;;;;;;;;;;;5080577;28;43368;-78
2022/10/14 09:08:54;;;;;;;;;;;;;;;;;;5073161;28;45851;-77
2022/10/14 09:11:21;;;;;;;;;;;;;;;;;;5078140;28;45269;-78
2022/10/14 09:13:48;;;;;;;;;;;;;;;;;;5073783;28;44317;-78
2022/10/14 09:16:15;;;;;;;;;;;;;;;;;;5083702;28;43586;-78
2022/10/14 09:18:42;;;;;;;;;;;;;;;;;;5076147;28;44574;-78
2022/10/14 09:21:09;;;;;;;;;;;;;;;;;;5077087;28;44681;-78
2022/10/14 09:23:36;;;;;;;;;;;;;;;;;;5079526;28;45151;-78
2022/10/14 09:26:03;;;;;;;;;;;;;;;;;;5071342;28;43084;-79
2022/10/14 09:28:31;;;;;;;;;;;;;;;;;;5109886;22;44573;-81
2022/10/14 09:30:58;;;;;;;;;;;;;;;;;;5108080;28;43300;-83
2022/10/14 09:33:25;;;;;;;;;;;;;;;;;;5106036;28;45152;-80
2022/10/14 09:35:52;;;;;;;;;;;;;;;;;;5106459;28;43454;-81
2022/10/14 09:38:19;;;;;;;;;;;;;;;;;;5087099;28;43011;-81
2022/10/14 09:40:46;;;;;;;;;;;;;;;;;;5102627;28;44609;-80
2022/10/14 09:43:13;;;;;;;;;;;;;;;;;;5098952;28;44147;-80
2022/10/14 09:45:40;;;;;;;;;;;;;;;;;;5085534;28;43667;-81
2022/10/14 09:48:07;;;;;;;;;;;;;;;;;;5090107;28;45071;-81
2022/10/14 09:50:34;;;;;;;;;;;;;;;;;;5091170;28;44668;-80
2022/10/14 09:53:01;;;;;;;;;;;;;;;;;;5105632;28;44145;-82
2022/10/14 09:55:28;;;;;;;;;;;;;;;;;;5100981;28;42004;-81
2022/10/14 09:57:55;;;;;;;;;;;;;;;;;;5103984;28;44774;-81
2022/10/14 10:00:23;;;;;;;;;;;;;;;;;;5093703;28;45690;-81
2022/10/14 10:02:51;;;;;;;;;;;;;;;;;;5097097;28;46008;-81
2022/10/14 10:05:18;;;;;;;;;;;;;;;;;;5107937;28;43405;-80
2022/10/14 10:07:45;;;;;;;;;;;;;;;;;;5102782;28;45153;-80
2022/10/14 10:10:12;;;;;;;;;;;;;;;;;;5091460;28;44851;-81
2022/10/14 10:12:45;;;;;;;;;;;;;;;;;;5105432;28;44425;-81
2022/10/14 10:15:14;;;;;;;;;;;;;;;;;;5114038;28;43669;-81
2022/10/14 10:17:43;;;;;;;;;;;;;;;;;;5110672;28;43952;-81
2022/10/14 10:20:11;;;;;;;;;;;;;;;;;;5098492;28;44817;-81
2022/10/14 10:22:38;;;;;;;;;;;;;;;;;;5114124;28;45001;-81
2022/10/14 10:25:05;;;;;;;;;;;;;;;;;;5104221;28;43783;-80
2022/10/14 10:27:34;;;;;;;;;;;;;;;;;;5102600;28;42815;-81
2022/10/14 10:30:01;;;;;;;;;;;;;;;;;;5088232;28;44694;-83
2022/10/14 10:32:29;;;;;;;;;;;;;;;;;;5112627;27;43215;-81
2022/10/14 10:34:55;;;;;;;;;;;;;;;;;;5100929;28;44642;-81
2022/10/14 10:37:23;;;;;;;;;;;;;;;;;;5101828;28;44641;-81
2022/10/14 10:39:51;;;;;;;;;;;;;;;;;;5096254;28;45902;-81
2022/10/14 10:42:18;;;;;;;;;;;;;;;;;;5100183;28;42709;-81
2022/10/14 10:44:46;;;;;;;;;;;;;;;;;;5105450;28;42735;-81
2022/10/14 10:47:13;;;;;;;;;;;;;;;;;;5101072;28;43636;-81
2022/10/14 10:49:40;;;;;;;;;;;;;;;;;;5096286;28;45651;-81
2022/10/14 10:52:07;;;;;;;;;;;;;;;;;;5100656;28;44726;-81
2022/10/14 10:54:34;;;;;;;;;;;;;;;;;;5100092;28;43106;-81
2022/10/14 10:57:01;;;;;;;;;;;;;;;;;;5076931;28;44619;-82
2022/10/14 10:59:29;;;;;;;;;;;;;;;;;;5097978;28;44563;-81
2022/10/14 11:01:56;;;;;;;;;;;;;;;;;;5103715;28;43992;-81
2022/10/14 11:04:23;;;;;;;;;;;;;;;;;;5100363;28;43748;-81
2022/10/14 11:12:29;;;;;;;;;;;;;;;;;;5075721;28;42662;-81
2022/10/14 11:14:56;;;;;;;;;;;;;;;;;;5100276;28;45134;-81
2022/10/14 11:17:23;;;;;;;;;;;;;;;;;;5098062;28;43528;-81
2022/10/14 11:19:52;;;;;;;;;;;;;;;;;;5101471;28;45681;-81
2022/10/14 11:22:19;;;;;;;;;;;;;;;;;;5100492;28;41760;-80
2022/10/14 11:24:47;;;;;;;;;;;;;;;;;;5100572;28;44241;-81
2022/10/14 11:27:14;;;;;;;;;;;;;;;;;;5100751;28;41841;-80
2022/10/14 11:29:41;;;;;;;;;;;;;;;;;;5097738;28;43911;-81
2022/10/14 11:32:08;;;;;;;;;;;;;;;;;;5097890;28;44026;-80
2022/10/14 11:34:35;;;;;;;;;;;;;;;;;;5097216;28;43704;-80
2022/10/14 11:37:02;;;;;;;;;;;;;;;;;;5092060;28;44857;-81
2022/10/14 11:39:29;;;;;;;;;;;;;;;;;;5089788;28;45734;-81
2022/10/14 11:42:00;;;;;;;;;;;;;;;;;;5100505;28;45097;-80
2022/10/14 11:44:27;;;;;;;;;;;;;;;;;;5100939;28;43700;-80
2022/10/14 11:46:55;;;;;;;;;;;;;;;;;;5101802;28;43482;-80
2022/10/14 11:49:22;;;;;;;;;;;;;;;;;;5101788;28;44786;-81
2022/10/14 11:51:49;;;;;;;;;;;;;;;;;;5098290;28;45263;-81
2022/10/14 11:54:16;;;;;;;;;;;;;;;;;;5102238;28;45037;-80
2022/10/14 11:56:44;;;;;;;;;;;;;;;;;;5099245;28;44768;-81
2022/10/14 11:59:11;;;;;;;;;;;;;;;;;;5099107;28;45872;-81
2022/10/14 12:01:38;;;;;;;;;;;;;;;;;;5100154;28;45175;-81
2022/10/14 12:04:08;;;;;;;;;;;;;;;;;;5102009;28;43651;-81
2022/10/14 12:06:35;;;;;;;;;;;;;;;;;;5097248;28;44640;-81
2022/10/14 12:09:03;;;;;;;;;;;;;;;;;;5104235;28;44800;-80
2022/10/14 12:11:30;;;;;;;;;;;;;;;;;;5098613;28;43990;-81
2022/10/14 12:13:57;;;;;;;;;;;;;;;;;;5106418;28;43238;-81
2022/10/14 12:16:24;;;;;;;;;;;;;;;;;;5098323;28;44770;-80
2022/10/14 12:18:51;;;;;;;;;;;;;;;;;;5105142;28;44790;-80
2022/10/14 12:21:18;;;;;;;;;;;;;;;;;;5099172;28;45205;-80
2022/10/14 12:23:45;;;;;;;;;;;;;;;;;;5101808;28;44674;-80
2022/10/14 12:26:12;;;;;;;;;;;;;;;;;;5091605;28;44837;-80
2022/10/14 12:28:42;;;;;;;;;;;;;;;;;;5100376;28;44803;-81
2022/10/14 12:31:08;;;;;;;;;;;;;;;;;;5088758;28;43825;-81
2022/10/14 12:33:36;;;;;;;;;;;;;;;;;;5101886;28;42777;-81
2022/10/14 12:36:05;;;;;;;;;;;;;;;;;;5099568;28;43289;-80
2022/10/14 12:38:34;;;;;;;;;;;;;;;;;;5104190;28;45091;-84
2022/10/14 12:41:01;;;;;;;;;;;;;;;;;;5107238;28;44118;-81
2022/10/14 12:43:28;;;;;;;;;;;;;;;;;;5098814;28;43350;-80
2022/10/14 12:45:55;;;;;;;;;;;;;;;;;;5097021;28;44857;-80
2022/10/14 12:48:22;;;;;;;;;;;;;;;;;;5096987;28;44744;-81
2022/10/14 12:50:50;;;;;;;;;;;;;;;;;;5084548;28;44023;-81
2022/10/14 12:53:17;;;;;;;;;;;;;;;;;;5098885;28;43676;-81
2022/10/14 12:55:44;;;;;;;;;;;;;;;;;;5098868;28;44734;-81
2022/10/14 12:58:11;;;;;;;;;;;;;;;;;;5082845;28;44763;-81
2022/10/14 13:00:40;;;;;;;;;;;;;;;;;;5100744;28;45247;-81
2022/10/14 13:03:07;;;;;;;;;;;;;;;;;;5102371;28;44608;-79
2022/10/14 13:05:34;;;;;;;;;;;;;;;;;;5095895;28;45165;-81
2022/10/14 13:08:01;;;;;;;;;;;;;;;;;;5080855;28;42443;-80
2022/10/14 13:10:28;;;;;;;;;;;;;;;;;;5102198;28;44452;-81
2022/10/14 13:12:55;;;;;;;;;;;;;;;;;;5097569;28;41124;-81
2022/10/14 13:15:22;;;;;;;;;;;;;;;;;;5096147;28;43217;-80
2022/10/14 13:17:50;;;;;;;;;;;;;;;;;;5105316;28;45492;-81
2022/10/14 13:20:18;;;;;;;;;;;;;;;;;;5100857;28;43757;-80
2022/10/14 13:22:44;;;;;;;;;;;;;;;;;;5099902;28;43566;-80
2022/10/14 13:25:14;;;;;;;;;;;;;;;;;;5099626;28;47793;-80
2022/10/14 13:27:41;;;;;;;;;;;;;;;;;;5106493;28;45086;-81
2022/10/14 13:30:08;;;;;;;;;;;;;;;;;;5095328;28;44053;-81
2022/10/14 13:32:38;;;;;;;;;;;;;;;;;;5108588;28;42653;-80
2022/10/14 13:35:05;;;;;;;;;;;;;;;;;;5081817;28;44860;-81
2022/10/14 13:37:32;;;;;;;;;;;;;;;;;;5106174;28;44644;-81
2022/10/14 13:39:59;;;;;;;;;;;;;;;;;;5098283;28;42001;-81
2022/10/14 13:42:26;;;;;;;;;;;;;;;;;;5081000;28;43809;-80
2022/10/14 13:44:53;;;;;;;;;;;;;;;;;;5082028;28;44481;-80
2022/10/14 13:47:20;;;;;;;;;;;;;;;;;;5090528;28;44773;-80
2022/10/14 13:49:47;;;;;;;;;;;;;;;;;;5092365;28;43991;-80
2022/10/14 13:52:14;;;;;;;;;;;;;;;;;;5098111;28;42342;-81
2022/10/14 13:54:41;;;;;;;;;;;;;;;;;;5099579;28;45042;-81
2022/10/14 13:57:08;;;;;;;;;;;;;;;;;;5098810;28;44688;-81
2022/10/14 13:59:55;;;;;;;;;;;;;;;;;;5096543;28;19990;-81
2022/10/14 14:02:45;;;;;;;;;;;;;;;;;;5093897;28;20039;-80
2022/10/14 14:05:15;;;;;;;;;;;;;;;;;;5096398;28;44792;-81
2022/10/14 14:07:42;;;;;;;;;;;;;;;;;;5096878;28;45428;-80
2022/10/14 14:10:29;;;;;;;;;;;;;;;;;;5097564;28;19968;-80
2022/10/14 14:12:56;;;;;;;;;;;;;;;;;;5100829;28;43664;-80
2022/10/14 14:15:23;;;;;;;;;;;;;;;;;;5103248;28;45135;-80
2022/10/14 14:17:50;;;;;;;;;;;;;;;;;;5100429;28;45770;-80
2022/10/14 14:20:17;;;;;;;;;;;;;;;;;;5104245;28;44138;-80
2022/10/14 14:22:44;;;;;;;;;;;;;;;;;;5101814;28;43637;-80
2022/10/14 14:25:11;;;;;;;;;;;;;;;;;;5100315;28;44845;-80
2022/10/14 14:27:58;;;;;;;;;;;;;;;;;;5101560;28;19934;-81
2022/10/14 14:30:25;;;;;;;;;;;;;;;;;;5102460;28;44017;-81
2022/10/14 14:32:52;;;;;;;;;;;;;;;;;;5099694;28;43968;-81
2022/10/14 14:35:19;;;;;;;;;;;;;;;;;;5100350;28;44643;-82
2022/10/14 14:37:48;;;;;;;;;;;;;;;;;;5101310;28;43856;-81
2022/10/14 14:40:22;;;;;;;;;;;;;;;;;;5102760;28;40906;-82
2022/10/14 14:42:49;;;;;;;;;;;;;;;;;;5100408;28;44048;-82
2022/10/14 14:45:18;;;;;;;;;;;;;;;;;;5090155;28;44727;-82
2022/10/14 14:47:45;;;;;;;;;;;;;;;;;;5101487;28;44863;-82
2022/10/14 14:50:12;;;;;;;;;;;;;;;;;;5098400;28;42357;-84
2022/10/14 14:52:55;;;;;;;;;;;;;;;;;;5104167;28;43370;-81
2022/10/14 14:55:27;;;;;;;;;;;;;;;;;;5110099;28;19939;-81
2022/10/14 14:57:54;;;;;;;;;;;;;;;;;;5108339;28;45628;-81
2022/10/14 15:00:21;;;;;;;;;;;;;;;;;;5113822;28;45315;-81
2022/10/14 15:02:48;;;;;;;;;;;;;;;;;;5110138;28;43696;-80
2022/10/14 15:05:15;;;;;;;;;;;;;;;;;;5115596;28;43401;-81
2022/10/14 15:07:44;;;;;;;;;;;;;;;;;;5114014;28;44419;-82
2022/10/14 15:10:11;;;;;;;;;;;;;;;;;;5108271;28;44348;-81
2022/10/14 15:12:40;;;;;;;;;;;;;;;;;;5112681;28;43844;-81
2022/10/14 15:15:07;;;;;;;;;;;;;;;;;;5112885;28;44907;-82
2022/10/14 15:17:34;;;;;;;;;;;;;;;;;;5112222;28;44083;-82
2022/10/14 15:20:01;;;;;;;;;;;;;;;;;;5113138;28;44094;-82
2022/10/14 15:22:29;;;;;;;;;;;;;;;;;;5112361;28;43579;-81
2022/10/14 15:24:56;;;;;;;;;;;;;;;;;;5112863;28;44968;-81
2022/10/14 15:27:23;;;;;;;;;;;;;;;;;;5112957;28;45066;-81
2022/10/14 15:29:50;;;;;;;;;;;;;;;;;;5106494;28;43962;-82
2022/10/14 15:32:19;;;;;;;;;;;;;;;;;;5109968;28;43251;-82
2022/10/14 15:34:46;;;;;;;;;;;;;;;;;;5107001;28;44524;-81
2022/10/14 15:37:13;;;;;;;;;;;;;;;;;;5111611;28;44779;-81
2022/10/14 15:39:40;;;;;;;;;;;;;;;;;;5116424;28;43141;-82
2022/10/14 15:42:07;;;;;;;;;;;;;;;;;;5104302;28;43924;-82
2022/10/14 15:44:34;;;;;;;;;;;;;;;;;;5109508;28;44432;-82
2022/10/14 15:47:19;;;;;;;;;;;;;;;;;;5103051;28;45670;-82
2022/10/14 15:49:46;;;;;;;;;;;;;;;;;;5094479;28;45061;-82
2022/10/14 15:52:14;;;;;;;;;;;;;;;;;;5107972;28;43551;-81
2022/10/14 15:54:41;;;;;;;;;;;;;;;;;;5108251;28;44779;-81
2022/10/14 15:57:08;;;;;;;;;;;;;;;;;;5115002;28;44537;-81
2022/10/14 15:59:38;;;;;;;;;;;;;;;;;;5112265;28;44776;-81
2022/10/14 16:02:05;;;;;;;;;;;;;;;;;;5118823;27;43637;-81
2022/10/14 16:04:32;;;;;;;;;;;;;;;;;;5108213;28;44569;-82
2022/10/14 16:06:59;;;;;;;;;;;;;;;;;;5114446;28;44458;-81
2022/10/14 16:09:26;;;;;;;;;;;;;;;;;;5105537;28;43816;-81
2022/10/14 16:11:56;;;;;;;;;;;;;;;;;;5102847;28;43646;-80
2022/10/14 16:14:26;;;;;;;;;;;;;;;;;;5088562;28;44869;-80
2022/10/14 16:16:57;;;;;;;;;;;;;;;;;;5104090;28;44726;-81
2022/10/14 16:19:27;;;;;;;;;;;;;;;;;;5084153;28;43015;-80
2022/10/14 16:21:58;;;;;;;;;;;;;;;;;;5107595;28;43050;-80
2022/10/14 16:24:28;;;;;;;;;;;;;;;;;;5108162;28;45178;-81
2022/10/14 16:26:55;;;;;;;;;;;;;;;;;;5109636;28;43436;-80
2022/10/14 16:29:22;;;;;;;;;;;;;;;;;;5102360;28;43931;-81
2022/10/14 16:31:53;;;;;;;;;;;;;;;;;;5103003;28;43303;-81
2022/10/14 16:34:20;;;;;;;;;;;;;;;;;;5102169;28;43449;-80
2022/10/14 16:36:47;;;;;;;;;;;;;;;;;;5099519;28;45438;-80
2022/10/14 16:39:14;;;;;;;;;;;;;;;;;;5104925;28;44972;-80
2022/10/14 16:41:41;;;;;;;;;;;;;;;;;;5106603;28;42082;-81
2022/10/14 16:44:23;;;;;;;;;;;;;;;;;;5102264;28;44884;-80
2022/10/14 16:49:35;;;;;;;;;;;;;;;;;;5105299;28;41909;-81
2022/10/14 16:52:02;;;;;;;;;;;;;;;;;;5100289;28;43650;-81
2022/10/14 16:54:32;;;;;;;;;;;;;;;;;;5104642;28;45065;-80
2022/10/14 16:56:59;;;;;;;;;;;;;;;;;;5101960;28;44980;-80